createdAt,value
2018-09-01T00:00:11.949Z,59.80
2018-09-01T00:02:41.813Z,59.80
2018-09-01T00:05:11.893Z,59.80
2018-09-01T00:07:42.426Z,59.90
2018-09-01T00:10:12.659Z,60.00
2018-09-01T00:12:42.061Z,60.00
2018-09-01T00:15:14.872Z,61.10
2018-09-01T00:17:43.931Z,60.50
2018-09-01T00:20:13.563Z,60.70
2018-09-01T00:22:44.930Z,60.80
2018-09-01T00:25:14.579Z,61.10
2018-09-01T00:27:43.833Z,61.20
2018-09-01T00:30:13.852Z,61.50
2018-09-01T00:32:43.913Z,61.40
2018-09-01T00:35:13.099Z,61.80
2018-09-01T00:37:48.150Z,61.80
2018-09-01T00:40:24.553Z,62.00
2018-09-01T00:42:55.224Z,62.00
2018-09-01T00:45:31.384Z,61.90
2018-09-01T00:48:00.408Z,62.10
2018-09-01T00:50:29.404Z,62.30
2018-09-01T00:52:59.021Z,62.20
2018-09-01T00:55:31.673Z,62.30
2018-09-01T00:58:01.730Z,62.50
2018-09-01T01:00:31.233Z,62.30
2018-09-01T01:03:00.302Z,62.50
2018-09-01T01:05:31.520Z,62.80
2018-09-01T01:08:03.143Z,62.70
2018-09-01T01:10:32.206Z,62.80
2018-09-01T01:13:02.000Z,63.00
2018-09-01T01:15:32.772Z,63.00
2018-09-01T01:18:02.117Z,62.90
2018-09-01T01:20:31.716Z,63.10
2018-09-01T01:23:01.108Z,62.90
2018-09-01T01:25:30.239Z,63.10
2018-09-01T01:27:59.428Z,63.00
2018-09-01T01:30:28.767Z,63.20
2018-09-01T01:32:58.272Z,63.40
2018-09-01T01:35:27.729Z,63.40
2018-09-01T01:37:56.755Z,63.40
2018-09-01T01:40:25.772Z,63.70
2018-09-01T01:42:55.885Z,63.80
2018-09-01T01:45:26.227Z,63.60
2018-09-01T01:47:59.135Z,63.70
2018-09-01T01:50:28.515Z,63.60
2018-09-01T01:52:58.798Z,63.80
2018-09-01T01:55:28.082Z,63.70
2018-09-01T01:57:58.231Z,64.60
2018-09-01T02:00:27.684Z,63.90
2018-09-01T02:02:57.696Z,63.90
2018-09-01T02:05:31.825Z,64.30
2018-09-01T02:08:03.480Z,64.50
2018-09-01T02:10:34.778Z,64.70
2018-09-01T02:13:04.671Z,64.80
2018-09-01T02:15:35.176Z,65.40
2018-09-01T02:18:04.789Z,65.10
2018-09-01T02:20:34.045Z,65.20
2018-09-01T02:23:04.178Z,65.30
2018-09-01T02:25:34.437Z,65.40
2018-09-01T02:28:04.406Z,65.60
2018-09-01T02:30:33.848Z,65.60
2018-09-01T02:33:03.933Z,65.60
2018-09-01T02:35:34.806Z,65.50
2018-09-01T02:38:06.273Z,65.90
2018-09-01T02:40:35.419Z,65.70
2018-09-01T02:43:06.179Z,65.60
2018-09-01T02:45:35.795Z,65.70
2018-09-01T02:48:05.257Z,66.00
2018-09-01T02:50:34.671Z,66.00
2018-09-01T02:53:05.147Z,66.00
2018-09-01T02:55:34.665Z,65.90
2018-09-01T02:58:04.096Z,66.20
2018-09-01T03:00:36.947Z,66.20
2018-09-01T03:03:08.836Z,65.90
2018-09-01T03:05:39.057Z,65.90
2018-09-01T03:08:08.852Z,66.00
2018-09-01T03:10:39.165Z,66.00
2018-09-01T03:13:09.326Z,66.30
2018-09-01T03:15:38.718Z,66.50
2018-09-01T03:18:08.183Z,66.70
2018-09-01T03:20:40.576Z,66.80
2018-09-01T03:23:09.690Z,67.10
2018-09-01T03:25:41.139Z,67.10
2018-09-01T03:28:11.773Z,67.10
2018-09-01T03:30:42.524Z,67.10
2018-09-01T03:33:11.621Z,67.10
2018-09-01T03:35:41.519Z,67.10
2018-09-01T03:38:12.075Z,67.20
2018-09-01T03:40:41.156Z,67.40
2018-09-01T03:43:13.155Z,67.50
2018-09-01T03:45:43.048Z,67.50
2018-09-01T03:48:13.716Z,67.60
2018-09-01T03:50:43.801Z,67.60
2018-09-01T03:53:13.713Z,67.60
2018-09-01T03:55:43.337Z,67.70
2018-09-01T03:58:14.511Z,67.80
2018-09-01T04:00:43.644Z,67.90
2018-09-01T04:03:13.508Z,67.90
2018-09-01T04:05:44.280Z,68.10
2018-09-01T04:08:14.301Z,68.70
2018-09-01T04:10:45.933Z,67.60
2018-09-01T04:13:16.920Z,67.60
2018-09-01T04:15:48.186Z,67.70
2018-09-01T04:18:20.844Z,67.80
2018-09-01T04:20:50.876Z,68.00
2018-09-01T04:23:21.090Z,67.90
2018-09-01T04:25:51.541Z,68.10
2018-09-01T04:28:22.482Z,68.10
2018-09-01T04:30:53.482Z,68.10
2018-09-01T04:33:23.012Z,68.20
2018-09-01T04:35:53.214Z,68.20
2018-09-01T04:38:23.321Z,68.40
2018-09-01T04:40:53.902Z,68.40
2018-09-01T04:43:24.691Z,68.40
2018-09-01T04:45:55.982Z,68.50
2018-09-01T04:48:26.593Z,68.80
2018-09-01T04:50:56.144Z,68.70
2018-09-01T04:53:28.806Z,69.10
2018-09-01T04:55:58.899Z,69.00
2018-09-01T04:58:30.041Z,69.30
2018-09-01T05:00:59.723Z,69.70
2018-09-01T05:03:32.429Z,69.20
2018-09-01T05:06:02.293Z,69.30
2018-09-01T05:08:32.953Z,69.00
2018-09-01T05:11:02.698Z,69.10
2018-09-01T05:13:32.274Z,69.30
2018-09-01T05:16:02.606Z,69.30
2018-09-01T05:18:33.176Z,69.30
2018-09-01T05:21:02.377Z,69.30
2018-09-01T05:23:32.224Z,69.80
2018-09-01T05:26:02.576Z,69.90
2018-09-01T05:28:32.470Z,70.00
2018-09-01T05:31:02.715Z,70.00
2018-09-01T05:33:32.589Z,69.80
2018-09-01T05:36:05.320Z,69.70
2018-09-01T05:38:37.569Z,69.30
2018-09-01T05:41:08.167Z,69.00
2018-09-01T05:43:38.371Z,68.40
2018-09-01T05:46:09.160Z,68.00
2018-09-01T05:48:38.240Z,67.50
2018-09-01T05:51:10.177Z,67.30
2018-09-01T05:53:40.344Z,67.10
2018-09-01T05:56:10.626Z,66.70
2018-09-01T05:58:40.605Z,66.10
2018-09-01T06:01:10.656Z,65.70
2018-09-01T06:03:39.683Z,65.20
2018-09-01T06:06:10.672Z,64.60
2018-09-01T06:08:41.660Z,64.10
2018-09-01T06:11:13.848Z,64.40
2018-09-01T06:13:43.595Z,62.80
2018-09-01T06:16:14.634Z,61.90
2018-09-01T06:18:45.374Z,60.90
2018-09-01T06:21:15.367Z,60.20
2018-09-01T06:23:44.488Z,59.80
2018-09-01T06:26:13.702Z,59.20
2018-09-01T06:28:46.400Z,58.50
2018-09-01T06:31:19.483Z,58.10
2018-09-01T06:33:52.046Z,57.90
2018-09-01T06:36:25.633Z,57.50
2018-09-01T06:38:55.756Z,57.50
2018-09-01T06:41:25.745Z,57.00
2018-09-01T06:43:56.163Z,57.00
2018-09-01T06:46:26.033Z,57.40
2018-09-01T06:48:55.168Z,56.70
2018-09-01T06:51:25.360Z,56.50
2018-09-01T06:53:55.893Z,56.40
2018-09-01T06:56:26.225Z,55.90
2018-09-01T06:58:57.954Z,54.80
2018-09-01T07:01:28.086Z,54.20
2018-09-01T07:04:00.152Z,53.80
2018-09-01T07:06:30.348Z,53.60
2018-09-01T07:09:02.998Z,53.40
2018-09-01T07:11:32.809Z,52.80
2018-09-01T07:14:02.335Z,52.10
2018-09-01T07:16:31.853Z,51.30
2018-09-01T07:19:02.928Z,51.10
2018-09-01T07:21:33.147Z,50.60
2018-09-01T07:24:03.228Z,50.40
2018-09-01T07:26:35.394Z,50.50
2018-09-01T07:29:07.597Z,50.20
2018-09-01T07:31:39.278Z,49.90
2018-09-01T07:34:08.724Z,49.80
2018-09-01T07:36:38.054Z,49.70
2018-09-01T07:39:08.452Z,49.60
2018-09-01T07:41:38.196Z,49.50
2018-09-01T07:44:07.585Z,49.40
2018-09-01T07:46:40.041Z,50.20
2018-09-01T07:49:10.702Z,50.50
2018-09-01T07:51:40.318Z,50.80
2018-09-01T07:54:09.744Z,51.10
2018-09-01T07:56:39.557Z,51.00
2018-09-01T07:59:08.964Z,51.10
2018-09-01T08:01:38.412Z,51.10
2018-09-01T08:04:08.245Z,51.50
2018-09-01T08:06:38.215Z,52.00
2018-09-01T08:09:10.942Z,52.10
2018-09-01T08:11:40.262Z,52.30
2018-09-01T08:14:10.241Z,52.70
2018-09-01T08:16:42.145Z,52.70
2018-09-01T08:19:12.225Z,52.90
2018-09-01T08:21:42.951Z,53.20
2018-09-01T08:24:13.223Z,53.20
2018-09-01T08:26:42.926Z,52.90
2018-09-01T08:29:13.217Z,52.90
2018-09-01T08:31:46.139Z,52.70
2018-09-01T08:34:17.411Z,52.70
2018-09-01T08:36:46.832Z,52.60
2018-09-01T08:39:16.533Z,52.80
2018-09-01T08:41:47.119Z,52.90
2018-09-01T08:44:16.841Z,53.50
2018-09-01T08:46:46.140Z,52.70
2018-09-01T08:49:17.518Z,52.60
2018-09-01T08:51:47.092Z,52.20
2018-09-01T08:54:17.223Z,52.00
2018-09-01T08:56:46.749Z,51.70
2018-09-01T08:59:16.089Z,51.00
2018-09-01T09:01:46.605Z,51.30
2018-09-01T09:04:18.411Z,50.70
2018-09-01T09:06:52.107Z,50.90
2018-09-01T09:09:25.991Z,50.80
2018-09-01T09:11:56.076Z,51.00
2018-09-01T09:14:27.238Z,50.80
2018-09-01T09:16:59.314Z,51.00
2018-09-01T09:19:29.290Z,51.50
2018-09-01T09:22:01.245Z,51.30
2018-09-01T09:24:33.216Z,51.80
2018-09-01T09:27:05.482Z,52.20
2018-09-01T09:29:35.021Z,51.80
2018-09-01T09:32:04.970Z,52.30
2018-09-01T09:34:35.090Z,52.00
2018-09-01T09:37:05.129Z,51.10
2018-09-01T09:39:37.975Z,51.50
2018-09-01T09:42:08.713Z,51.10
2018-09-01T09:44:41.890Z,49.90
2018-09-01T09:47:11.498Z,48.70
2018-09-01T09:49:43.002Z,46.60
2018-09-01T09:54:58.849Z,47.90
2018-09-01T09:57:28.667Z,47.80
2018-09-01T09:59:58.857Z,47.80
2018-09-01T10:02:28.413Z,48.10
2018-09-01T10:04:57.875Z,48.50
2018-09-01T10:07:27.137Z,48.40
2018-09-01T10:09:56.950Z,49.00
2018-09-01T10:12:26.758Z,48.60
2018-09-01T10:14:56.447Z,47.70
2018-09-01T10:17:25.647Z,48.00
2018-09-01T10:19:55.552Z,47.30
2018-09-01T10:22:26.723Z,47.20
2018-09-01T10:24:56.071Z,47.70
2018-09-01T10:27:25.663Z,47.20
2018-09-01T10:29:55.992Z,47.40
2018-09-01T10:32:27.169Z,47.10
2018-09-01T10:34:56.508Z,47.40
2018-09-01T10:37:27.426Z,46.80
2018-09-01T10:39:58.005Z,46.60
2018-09-01T10:42:28.469Z,46.40
2018-09-01T10:44:58.016Z,45.30
2018-09-01T10:47:28.279Z,44.10
2018-09-01T10:49:59.208Z,43.70
2018-09-01T10:52:28.538Z,44.20
2018-09-01T10:54:57.777Z,43.90
2018-09-01T10:57:27.569Z,43.70
2018-09-01T10:59:56.966Z,43.20
2018-09-01T11:02:26.243Z,43.70
2018-09-01T11:04:57.211Z,44.60
2018-09-01T11:07:26.779Z,44.70
2018-09-01T11:09:56.246Z,44.50
2018-09-01T11:12:27.116Z,43.80
2018-09-01T11:14:56.600Z,43.70
2018-09-01T11:17:27.019Z,43.80
2018-09-01T11:20:02.434Z,43.40
2018-09-01T11:22:32.039Z,44.30
2018-09-01T11:25:03.848Z,42.90
2018-09-01T11:27:34.279Z,43.10
2018-09-01T11:30:04.629Z,42.90
2018-09-01T11:32:37.463Z,42.80
2018-09-01T11:35:09.550Z,42.80
2018-09-01T11:37:39.483Z,43.00
2018-09-01T11:40:09.052Z,43.20
2018-09-01T11:42:39.138Z,43.60
2018-09-01T11:45:08.428Z,43.60
2018-09-01T11:47:37.727Z,44.20
2018-09-01T11:50:07.658Z,44.30
2018-09-01T11:52:39.665Z,43.80
2018-09-01T11:55:09.427Z,43.70
2018-09-01T11:57:45.437Z,43.50
2018-09-01T12:00:15.143Z,42.00
2018-09-01T12:02:44.857Z,41.70
2018-09-01T12:05:16.968Z,42.30
2018-09-01T12:07:46.395Z,42.20
2018-09-01T12:10:16.812Z,42.30
2018-09-01T12:12:46.119Z,40.90
2018-09-01T12:15:16.672Z,40.40
2018-09-01T12:17:49.464Z,39.90
2018-09-01T12:20:21.222Z,38.60
2018-09-01T12:22:52.678Z,38.40
2018-09-01T12:25:23.814Z,38.10
2018-09-01T12:27:56.451Z,38.50
2018-09-01T12:30:26.845Z,38.70
2018-09-01T12:32:56.246Z,38.50
2018-09-01T12:35:28.519Z,38.90
2018-09-01T12:37:58.173Z,39.00
2018-09-01T12:40:27.378Z,37.90
2018-09-01T12:42:56.996Z,38.10
2018-09-01T12:45:28.238Z,37.80
2018-09-01T12:47:57.882Z,37.80
2018-09-01T12:50:29.251Z,37.10
2018-09-01T12:52:59.271Z,36.90
2018-09-01T12:55:28.870Z,37.20
2018-09-01T12:57:58.509Z,37.20
2018-09-01T13:00:28.747Z,37.30
2018-09-01T13:02:59.366Z,37.50
2018-09-01T13:05:31.177Z,37.60
2018-09-01T13:08:00.662Z,37.70
2018-09-01T13:10:29.989Z,37.40
2018-09-01T13:12:59.519Z,36.30
2018-09-01T13:15:30.851Z,36.80
2018-09-01T13:18:00.445Z,36.90
2018-09-01T13:20:29.746Z,36.20
2018-09-01T13:23:01.679Z,36.00
2018-09-01T13:25:31.451Z,36.40
2018-09-01T13:28:01.597Z,36.50
2018-09-01T13:30:31.151Z,36.50
2018-09-01T13:33:00.450Z,37.40
2018-09-01T13:35:30.987Z,37.20
2018-09-01T13:38:01.728Z,37.00
2018-09-01T13:40:31.788Z,36.20
2018-09-01T13:43:02.570Z,36.30
2018-09-01T13:45:32.568Z,36.80
2018-09-01T13:48:06.980Z,36.40
2018-09-01T13:50:36.962Z,37.30
2018-09-01T13:53:06.790Z,37.00
2018-09-01T13:55:36.591Z,36.80
2018-09-01T13:58:05.984Z,37.20
2018-09-01T14:00:36.082Z,37.20
2018-09-01T14:03:05.834Z,36.90
2018-09-01T14:05:37.906Z,36.60
2018-09-01T14:08:07.218Z,35.70
2018-09-01T14:10:37.679Z,35.70
2018-09-01T14:13:09.029Z,35.90
2018-09-01T14:15:39.599Z,36.50
2018-09-01T14:18:09.164Z,36.70
2018-09-01T14:20:38.964Z,36.70
2018-09-01T14:23:08.629Z,36.50
2018-09-01T14:25:40.694Z,36.10
2018-09-01T14:28:11.749Z,35.90
2018-09-01T14:30:42.567Z,36.00
2018-09-01T14:33:12.915Z,35.70
2018-09-01T14:35:42.524Z,36.40
2018-09-01T14:38:17.315Z,36.40
2018-09-01T14:40:46.856Z,36.40
2018-09-01T14:43:18.719Z,36.60
2018-09-01T14:45:48.908Z,36.50
2018-09-01T14:48:19.285Z,35.50
2018-09-01T14:50:49.131Z,35.80
2018-09-01T14:53:19.630Z,36.10
2018-09-01T14:55:49.523Z,35.90
2018-09-01T14:58:21.973Z,36.20
2018-09-01T15:00:52.671Z,36.30
2018-09-01T15:03:24.936Z,36.10
2018-09-01T15:05:55.852Z,35.80
2018-09-01T15:08:25.762Z,36.10
2018-09-01T15:10:55.897Z,36.20
2018-09-01T15:13:29.456Z,36.40
2018-09-01T15:16:00.312Z,35.90
2018-09-01T15:18:30.261Z,36.10
2018-09-01T15:21:01.824Z,36.40
2018-09-01T15:23:34.678Z,36.40
2018-09-01T15:26:05.218Z,36.00
2018-09-01T15:28:35.094Z,35.90
2018-09-01T15:31:08.427Z,35.50
2018-09-01T15:33:38.258Z,35.50
2018-09-01T15:36:08.202Z,35.80
2018-09-01T15:38:38.527Z,36.10
2018-09-01T15:41:09.875Z,36.00
2018-09-01T15:43:40.522Z,36.40
2018-09-01T15:46:10.555Z,36.60
2018-09-01T15:48:42.033Z,35.80
2018-09-01T15:51:17.362Z,36.20
2018-09-01T15:53:50.407Z,36.30
2018-09-01T15:56:22.287Z,35.90
2018-09-01T15:58:53.664Z,36.50
2018-09-01T16:01:30.186Z,36.10
2018-09-01T16:04:08.629Z,36.10
2018-09-01T16:06:40.318Z,36.10
2018-09-01T16:09:12.375Z,36.40
2018-09-01T16:11:43.906Z,36.60
2018-09-01T16:14:13.546Z,36.60
2018-09-01T16:16:43.609Z,36.40
2018-09-01T16:19:14.163Z,36.70
2018-09-01T16:21:44.254Z,36.40
2018-09-01T16:24:14.107Z,36.40
2018-09-01T16:26:44.202Z,36.70
2018-09-01T16:29:15.111Z,36.80
2018-09-01T16:31:45.383Z,36.90
2018-09-01T16:34:19.381Z,37.00
2018-09-01T16:36:49.907Z,37.00
2018-09-01T16:39:20.506Z,37.00
2018-09-01T16:41:50.366Z,36.70
2018-09-01T16:44:20.556Z,36.90
2018-09-01T16:46:50.569Z,37.20
2018-09-01T16:49:20.347Z,37.20
2018-09-01T16:51:50.950Z,37.20
2018-09-01T16:54:21.704Z,37.70
2018-09-01T16:56:52.605Z,37.80
2018-09-01T16:59:27.208Z,38.00
2018-09-01T17:01:59.428Z,38.20
2018-09-01T17:04:30.247Z,38.10
2018-09-01T17:07:19.413Z,37.80
2018-09-01T17:09:49.196Z,38.10
2018-09-01T17:12:20.196Z,38.70
2018-09-01T17:14:49.987Z,38.20
2018-09-01T17:17:20.991Z,38.10
2018-09-01T17:19:51.148Z,38.20
2018-09-01T17:22:22.535Z,38.40
2018-09-01T17:24:52.648Z,38.50
2018-09-01T17:27:30.633Z,38.50
2018-09-01T17:30:00.545Z,38.60
2018-09-01T17:32:32.830Z,38.70
2018-09-01T17:35:02.853Z,39.00
2018-09-01T17:37:33.153Z,39.10
2018-09-01T17:40:03.293Z,39.30
2018-09-01T17:42:33.286Z,39.50
2018-09-01T17:45:04.269Z,39.70
2018-09-01T17:47:34.035Z,39.80
2018-09-01T17:50:03.679Z,39.90
2018-09-01T17:52:33.431Z,40.10
2018-09-01T17:55:04.007Z,40.20
2018-09-01T17:57:38.570Z,40.40
2018-09-01T18:00:10.568Z,40.50
2018-09-01T18:02:41.175Z,40.60
2018-09-01T18:05:14.508Z,40.70
2018-09-01T18:07:44.358Z,40.90
2018-09-01T18:10:15.296Z,41.00
2018-09-01T18:12:47.113Z,41.00
2018-09-01T18:15:16.833Z,41.10
2018-09-01T18:17:47.858Z,41.30
2018-09-01T18:20:17.705Z,41.50
2018-09-01T18:22:47.643Z,41.60
2018-09-01T18:25:17.470Z,41.70
2018-09-01T18:27:47.411Z,42.10
2018-09-01T18:30:17.143Z,42.20
2018-09-01T18:32:48.241Z,42.20
2018-09-01T18:35:18.310Z,42.40
2018-09-01T18:37:49.672Z,42.80
2018-09-01T18:40:22.839Z,42.90
2018-09-01T18:42:53.540Z,43.00
2018-09-01T18:45:23.868Z,43.10
2018-09-01T18:47:54.921Z,43.20
2018-09-01T18:50:24.761Z,43.40
2018-09-01T18:52:56.640Z,43.50
2018-09-01T18:55:28.683Z,43.60
2018-09-01T18:57:59.413Z,43.80
2018-09-01T19:00:33.004Z,43.90
2018-09-01T19:03:11.806Z,43.80
2018-09-01T19:05:46.774Z,44.10
2018-09-01T19:08:21.805Z,44.00
2018-09-01T19:13:33.808Z,44.20
2018-09-01T19:16:02.845Z,44.40
2018-09-01T19:18:32.374Z,44.50
2018-09-01T19:21:01.731Z,44.50
2018-09-01T19:23:31.055Z,44.70
2018-09-01T19:26:00.602Z,44.60
2018-09-01T19:28:29.761Z,44.70
2018-09-01T19:30:59.246Z,44.80
2018-09-01T19:33:29.113Z,45.10
2018-09-01T19:35:58.349Z,45.40
2018-09-01T19:38:27.776Z,45.20
2018-09-01T19:40:57.047Z,45.30
2018-09-01T19:43:26.653Z,45.20
2018-09-01T19:45:56.140Z,45.30
2018-09-01T19:48:25.183Z,45.60
2018-09-01T19:50:54.803Z,45.70
2018-09-01T19:53:24.139Z,46.20
2018-09-01T19:55:54.040Z,46.30
2018-09-01T19:58:23.656Z,46.60
2018-09-01T20:00:53.150Z,46.70
2018-09-01T20:03:22.272Z,46.80
2018-09-01T20:05:51.381Z,46.90
2018-09-01T20:08:20.494Z,47.30
2018-09-01T20:10:49.538Z,47.40
2018-09-01T20:13:18.646Z,47.60
2018-09-01T20:15:47.997Z,47.60
2018-09-01T20:18:17.044Z,47.70
2018-09-01T20:20:46.171Z,47.90
2018-09-01T20:23:15.566Z,48.40
2018-09-01T20:25:44.697Z,48.50
2018-09-01T20:28:13.938Z,48.10
2018-09-01T20:30:42.984Z,48.80
2018-09-01T20:33:12.118Z,49.20
2018-09-01T20:35:46.656Z,49.20
2018-09-01T20:38:16.634Z,49.60
2018-09-01T20:40:45.800Z,50.50
2018-09-01T20:43:14.900Z,50.00
2018-09-01T20:45:44.233Z,50.20
2018-09-01T20:48:13.713Z,50.30
2018-09-01T20:50:42.981Z,50.60
2018-09-01T20:53:12.274Z,50.90
2018-09-01T20:55:41.948Z,51.10
2018-09-01T20:58:12.670Z,51.40
2018-09-01T21:00:41.891Z,51.30
2018-09-01T21:03:11.055Z,51.30
2018-09-01T21:05:41.552Z,51.60
2018-09-01T21:08:11.886Z,51.40
2018-09-01T21:10:41.302Z,51.50
2018-09-01T21:13:10.474Z,51.90
2018-09-01T21:15:40.030Z,52.20
2018-09-01T21:18:09.187Z,52.50
2018-09-01T21:20:38.243Z,52.50
2018-09-01T21:23:07.392Z,52.70
2018-09-01T21:25:36.575Z,52.90
2018-09-01T21:28:05.740Z,53.10
2018-09-01T21:30:34.979Z,53.40
2018-09-01T21:33:04.296Z,53.30
2018-09-01T21:35:33.384Z,53.40
2018-09-01T21:38:02.405Z,53.60
2018-09-01T21:40:31.492Z,53.50
2018-09-01T21:43:00.631Z,53.50
2018-09-01T21:45:29.720Z,53.60
2018-09-01T21:47:58.741Z,54.20
2018-09-01T21:50:27.836Z,53.60
2018-09-01T21:52:57.104Z,54.40
2018-09-01T21:55:26.175Z,54.00
2018-09-01T21:57:55.270Z,53.90
2018-09-01T22:00:24.309Z,54.10
2018-09-01T22:02:53.961Z,54.00
2018-09-01T22:05:23.591Z,54.30
2018-09-01T22:07:52.715Z,54.40
2018-09-01T22:10:21.792Z,54.40
2018-09-01T22:12:50.899Z,54.60
2018-09-01T22:15:19.937Z,54.70
2018-09-01T22:17:49.060Z,54.80
2018-09-01T22:20:18.122Z,55.00
2018-09-01T22:22:47.254Z,55.10
2018-09-01T22:25:16.394Z,55.30
2018-09-01T22:27:45.440Z,55.50
2018-09-01T22:30:14.565Z,55.50
2018-09-01T22:32:43.701Z,55.70
2018-09-01T22:35:12.825Z,55.80
2018-09-01T22:37:41.916Z,55.90
2018-09-01T22:40:12.009Z,55.90
2018-09-01T22:42:41.109Z,56.00
2018-09-01T22:45:10.240Z,56.10
2018-09-01T22:47:39.835Z,56.10
2018-09-01T22:50:08.968Z,56.30
2018-09-01T22:52:38.039Z,56.50
2018-09-01T22:55:07.395Z,56.50
2018-09-01T22:57:36.753Z,57.30
2018-09-01T23:00:06.090Z,56.70
2018-09-01T23:02:35.149Z,57.00
2018-09-01T23:05:04.526Z,56.80
2018-09-01T23:07:33.606Z,56.90
2018-09-01T23:10:02.701Z,57.20
2018-09-01T23:12:31.981Z,57.00
2018-09-01T23:15:01.703Z,57.00
2018-09-01T23:17:31.710Z,57.20
2018-09-01T23:20:01.896Z,57.30
2018-09-01T23:22:32.473Z,57.70
2018-09-01T23:25:01.937Z,57.40
2018-09-01T23:27:32.136Z,58.00
2018-09-01T23:30:02.092Z,57.70
2018-09-01T23:32:31.156Z,57.80
2018-09-01T23:35:00.224Z,58.00
2018-09-01T23:37:29.275Z,58.10
2018-09-01T23:39:58.301Z,58.20
2018-09-01T23:42:27.358Z,58.30
2018-09-01T23:44:56.391Z,59.00
2018-09-01T23:47:25.472Z,58.40
2018-09-01T23:49:54.500Z,58.40
2018-09-01T23:52:23.563Z,58.40
2018-09-01T23:54:52.637Z,58.40
2018-09-01T23:57:21.685Z,58.70
2018-09-01T23:59:51.214Z,58.70
